Fog Current Weather (METAR) For Bournemouth Airport

All times on the weather descriptions are local

Observed at 11:20 - (5 mins ago)

Fog

14°C

in the vicinity , Fog , Mist
Clouds:
Wind: Calm
Visibility: 1,100m
QNH: 1029
Dew Point: 14°C
Runway in Use: Unable to determine, wind is clam

Sunrise Today: 07:08
Sunset Today: 18:44

Forecast Weather (TAF) For Bournemouth Airport

Issued at 01:00 - (29 days ago)


Runway in Use: Unable to determine, wind is clam

Forecast valid until 01:00 on Friday

METAR/TAF RAW METAR / TAF

EGHH 021020Z 00000KT 1100 R26/1400 VCFG BR VV/// 14/14 Q1029

Weather Widget

Put weather from any of our airports on your website with our weather widget.

Find Another Search

Airport Search


Please Wait Please Wait - Loading
Close
Close

Login

Username:

Password:

Remember Me:

Remember me on this computer

Forgotten your password? Get a reset password sent to your registered e-mail address

Close

User Private Message

Subject:

Message: